createdAt,value
2017-08-24T00:00:54.774Z,70.70
2017-08-24T00:03:20.758Z,70.80
2017-08-24T00:05:46.728Z,70.70
2017-08-24T00:08:12.675Z,71.00
2017-08-24T00:10:38.629Z,71.20
2017-08-24T00:13:04.600Z,71.20
2017-08-24T00:15:30.627Z,71.20
2017-08-24T00:17:57.592Z,71.10
2017-08-24T00:20:23.648Z,70.70
2017-08-24T00:22:49.611Z,70.70
2017-08-24T00:25:15.577Z,71.00
2017-08-24T00:27:41.515Z,71.20
2017-08-24T00:30:07.499Z,70.90
2017-08-24T00:32:33.536Z,71.00
2017-08-24T00:34:59.567Z,71.10
2017-08-24T00:37:25.652Z,71.10
2017-08-24T00:39:51.631Z,71.40
2017-08-24T00:42:17.639Z,71.50
2017-08-24T00:44:43.571Z,71.60
2017-08-24T00:47:09.563Z,71.60
2017-08-24T00:49:35.543Z,71.80
2017-08-24T00:52:01.603Z,72.40
2017-08-24T00:54:27.582Z,73.20
2017-08-24T00:56:53.576Z,73.50
2017-08-24T00:59:19.711Z,73.70
2017-08-24T01:01:45.800Z,74.10
2017-08-24T01:04:11.850Z,75.00
2017-08-24T01:06:37.843Z,74.90
2017-08-24T01:09:03.853Z,75.60
2017-08-24T01:11:29.820Z,75.80
2017-08-24T01:13:55.777Z,76.60
2017-08-24T01:16:21.759Z,77.20
2017-08-24T01:18:47.744Z,77.80
2017-08-24T01:21:13.702Z,78.10
2017-08-24T01:23:40.625Z,78.70
2017-08-24T01:26:06.699Z,79.10
2017-08-24T01:28:32.709Z,80.10
2017-08-24T01:30:59.052Z,79.90
2017-08-24T01:33:25.026Z,80.40
2017-08-24T01:35:51.084Z,80.70
2017-08-24T01:38:17.089Z,80.80
2017-08-24T01:40:43.243Z,80.80
2017-08-24T01:43:10.015Z,81.10
2017-08-24T01:45:36.214Z,81.60
2017-08-24T01:48:02.464Z,81.90
2017-08-24T01:50:28.427Z,81.50
2017-08-24T01:52:54.452Z,81.70
2017-08-24T01:55:20.410Z,82.00
2017-08-24T01:57:46.448Z,82.40
2017-08-24T02:00:12.389Z,82.80
2017-08-24T02:02:38.440Z,83.20
2017-08-24T02:05:04.433Z,83.60
2017-08-24T02:07:30.435Z,83.90
2017-08-24T02:09:56.503Z,83.50
2017-08-24T02:12:22.517Z,83.60
2017-08-24T02:14:48.499Z,83.60
2017-08-24T02:17:14.453Z,83.80
2017-08-24T02:19:41.122Z,83.60
2017-08-24T02:22:07.079Z,84.10
2017-08-24T02:24:33.047Z,84.10
2017-08-24T02:26:59.180Z,84.00
2017-08-24T02:29:25.151Z,84.00
2017-08-24T02:31:51.183Z,83.80
2017-08-24T02:34:17.132Z,83.60
2017-08-24T02:36:43.169Z,83.60
2017-08-24T02:39:09.131Z,83.40
2017-08-24T02:41:35.116Z,83.60
2017-08-24T02:44:01.119Z,83.70
2017-08-24T02:46:27.145Z,83.70
2017-08-24T02:48:53.096Z,83.90
2017-08-24T02:51:19.477Z,83.70
2017-08-24T02:53:48.790Z,83.00
2017-08-24T02:56:17.287Z,83.40
2017-08-24T02:58:45.481Z,83.40
2017-08-24T03:01:12.276Z,83.40
2017-08-24T03:03:38.294Z,83.20
2017-08-24T03:06:04.252Z,83.10
2017-08-24T03:08:30.262Z,82.70
2017-08-24T03:10:56.255Z,83.00
2017-08-24T03:13:22.218Z,83.40
2017-08-24T03:15:48.232Z,83.80
2017-08-24T03:18:14.270Z,84.10
2017-08-24T03:20:40.284Z,84.10
2017-08-24T03:23:06.423Z,84.40
2017-08-24T03:25:34.175Z,85.00
2017-08-24T03:28:00.151Z,85.20
2017-08-24T03:30:26.204Z,85.70
2017-08-24T03:32:52.212Z,85.90
2017-08-24T03:35:19.080Z,86.50
2017-08-24T03:37:45.111Z,86.70
2017-08-24T03:40:11.135Z,86.90
2017-08-24T03:42:37.899Z,86.80
2017-08-24T03:45:03.876Z,87.20
2017-08-24T03:47:29.887Z,87.10
2017-08-24T03:49:55.903Z,87.20
2017-08-24T03:52:21.936Z,87.20
2017-08-24T03:54:47.911Z,87.20
2017-08-24T03:57:13.866Z,87.30
2017-08-24T03:59:39.826Z,87.50
2017-08-24T04:02:05.891Z,88.10
2017-08-24T04:04:31.852Z,88.60
2017-08-24T04:06:57.844Z,88.80
2017-08-24T04:09:23.872Z,88.90
2017-08-24T04:11:49.843Z,89.40
2017-08-24T04:14:15.821Z,89.80
2017-08-24T04:16:41.876Z,90.10
2017-08-24T04:19:08.108Z,90.20
2017-08-24T04:21:34.226Z,90.40
2017-08-24T04:24:00.410Z,91.00
2017-08-24T04:26:26.459Z,91.40
2017-08-24T04:28:52.761Z,91.60
2017-08-24T04:31:19.226Z,91.80
2017-08-24T04:33:45.230Z,91.90
2017-08-24T04:36:11.487Z,92.00
2017-08-24T04:38:38.382Z,92.10
2017-08-24T04:41:04.474Z,92.10
2017-08-24T04:43:30.555Z,92.10
2017-08-24T04:45:56.547Z,92.10
2017-08-24T04:48:22.595Z,92.00
2017-08-24T04:50:48.802Z,92.00
2017-08-24T04:53:14.775Z,91.80
2017-08-24T04:55:41.922Z,91.60
2017-08-24T04:58:08.136Z,91.40
2017-08-24T05:00:34.484Z,91.40
2017-08-24T05:03:00.513Z,91.30
2017-08-24T05:05:26.509Z,91.30
2017-08-24T05:07:52.759Z,91.10
2017-08-24T05:10:18.803Z,91.20
2017-08-24T05:12:46.798Z,91.10
2017-08-24T05:15:12.867Z,91.30
2017-08-24T05:17:39.648Z,91.30
2017-08-24T05:20:05.624Z,91.40
2017-08-24T05:22:31.732Z,91.20
2017-08-24T05:24:57.873Z,91.40
2017-08-24T05:27:23.985Z,91.30
2017-08-24T05:29:50.472Z,91.40
2017-08-24T05:32:16.638Z,91.40
2017-08-24T05:34:44.628Z,91.50
2017-08-24T05:37:10.962Z,91.40
2017-08-24T05:39:36.928Z,91.40
2017-08-24T05:42:02.884Z,91.20
2017-08-24T05:44:28.896Z,91.00
2017-08-24T05:46:55.155Z,90.90
2017-08-24T05:49:21.416Z,90.80
2017-08-24T05:51:47.715Z,90.60
2017-08-24T05:54:14.715Z,91.00
2017-08-24T05:56:40.768Z,90.70
2017-08-24T05:59:08.549Z,90.70
2017-08-24T06:01:34.738Z,90.70
2017-08-24T06:04:01.759Z,90.80
2017-08-24T06:06:27.799Z,90.90
2017-08-24T06:08:54.776Z,90.90
2017-08-24T06:11:20.832Z,91.10
2017-08-24T06:13:49.066Z,91.20
2017-08-24T06:16:15.171Z,91.40
2017-08-24T06:18:41.200Z,91.50
2017-08-24T06:21:07.243Z,91.60
2017-08-24T06:23:33.347Z,91.60
2017-08-24T06:25:59.557Z,91.60
2017-08-24T06:28:30.299Z,91.60
2017-08-24T06:30:56.379Z,91.80
2017-08-24T06:33:24.322Z,91.90
2017-08-24T06:35:50.429Z,91.80
2017-08-24T06:38:16.469Z,91.70
2017-08-24T06:40:42.467Z,92.00
2017-08-24T06:43:09.779Z,92.00
2017-08-24T06:45:35.985Z,91.80
2017-08-24T06:48:03.242Z,91.80
2017-08-24T06:50:30.276Z,91.80
2017-08-24T06:52:56.428Z,92.10
2017-08-24T06:55:24.272Z,92.10
2017-08-24T06:57:50.352Z,92.00
2017-08-24T07:00:18.247Z,91.80
2017-08-24T07:02:45.184Z,91.70
2017-08-24T07:05:11.309Z,91.50
2017-08-24T07:07:39.659Z,91.40
2017-08-24T07:10:06.103Z,91.40
2017-08-24T07:12:32.133Z,91.30
2017-08-24T07:14:58.476Z,91.30
2017-08-24T07:17:24.501Z,91.10
2017-08-24T07:19:52.575Z,91.10
2017-08-24T07:22:19.092Z,91.20
2017-08-24T07:24:45.264Z,91.60
2017-08-24T07:27:12.183Z,91.00
2017-08-24T07:29:38.447Z,90.90
2017-08-24T07:32:04.537Z,91.00
2017-08-24T07:34:30.529Z,91.00
2017-08-24T07:36:56.494Z,91.20
2017-08-24T07:39:23.443Z,91.20
2017-08-24T07:41:51.014Z,91.00
2017-08-24T07:44:17.040Z,90.90
2017-08-24T07:46:45.358Z,90.80
2017-08-24T07:49:11.399Z,90.50
2017-08-24T07:51:38.169Z,90.30
2017-08-24T07:54:04.184Z,90.60
2017-08-24T07:56:30.735Z,90.70
2017-08-24T07:58:56.715Z,90.40
2017-08-24T08:01:22.935Z,90.40
2017-08-24T08:03:50.700Z,90.20
2017-08-24T08:06:16.671Z,90.10
2017-08-24T08:08:42.617Z,89.90
2017-08-24T08:11:08.667Z,90.00
2017-08-24T08:13:34.701Z,90.00
2017-08-24T08:16:00.719Z,90.00
2017-08-24T08:18:27.543Z,89.20
2017-08-24T08:20:53.570Z,89.20
2017-08-24T08:23:19.547Z,89.50
2017-08-24T08:25:46.596Z,89.30
2017-08-24T08:30:43.324Z,88.10
2017-08-24T08:33:09.317Z,87.30
2017-08-24T08:35:35.289Z,87.10
2017-08-24T08:38:02.363Z,87.30
2017-08-24T08:40:28.381Z,87.30
2017-08-24T08:42:54.375Z,86.80
2017-08-24T08:45:21.145Z,86.70
2017-08-24T08:47:47.728Z,87.20
2017-08-24T08:50:13.710Z,86.80
2017-08-24T08:52:39.800Z,87.00
2017-08-24T08:55:06.447Z,86.90
2017-08-24T08:57:32.458Z,86.80
2017-08-24T08:59:58.393Z,87.60
2017-08-24T09:02:24.719Z,88.00
2017-08-24T09:04:50.743Z,88.20
2017-08-24T09:07:16.828Z,88.00
2017-08-24T09:09:42.841Z,87.50
2017-08-24T09:12:08.860Z,87.40
2017-08-24T09:14:34.852Z,87.30
2017-08-24T09:17:00.881Z,87.30
2017-08-24T09:19:26.913Z,83.60
2017-08-24T09:21:53.789Z,83.60
2017-08-24T09:24:19.961Z,83.20
2017-08-24T09:26:45.984Z,82.70
2017-08-24T09:29:11.969Z,81.50
2017-08-24T09:31:37.969Z,78.00
2017-08-24T09:34:05.716Z,76.10
2017-08-24T09:36:31.719Z,74.80
2017-08-24T09:38:58.173Z,73.80
2017-08-24T09:41:24.105Z,72.00
2017-08-24T09:43:50.326Z,70.40
2017-08-24T09:46:18.939Z,69.50
2017-08-24T09:48:44.882Z,69.10
2017-08-24T09:51:10.850Z,69.00
2017-08-24T09:53:37.101Z,67.70
2017-08-24T09:56:03.221Z,67.00
2017-08-24T09:58:30.043Z,65.70
2017-08-24T10:00:56.044Z,65.10
2017-08-24T10:03:22.385Z,64.80
2017-08-24T10:05:50.784Z,63.20
2017-08-24T10:08:16.776Z,62.00
2017-08-24T10:10:45.361Z,60.30
2017-08-24T10:13:11.771Z,58.90
2017-08-24T10:15:38.859Z,55.10
2017-08-24T10:18:04.972Z,55.70
2017-08-24T10:20:30.999Z,55.50
2017-08-24T10:22:56.920Z,55.20
2017-08-24T10:25:22.855Z,55.00
2017-08-24T10:27:49.186Z,55.50
2017-08-24T10:30:16.672Z,58.60
2017-08-24T10:32:43.081Z,58.70
2017-08-24T10:35:09.444Z,55.80
2017-08-24T10:37:35.408Z,55.70
2017-08-24T10:40:02.255Z,58.90
2017-08-24T10:42:28.255Z,59.50
2017-08-24T10:44:54.252Z,59.00
2017-08-24T10:47:21.655Z,59.30
2017-08-24T10:49:47.604Z,58.00
2017-08-24T10:52:13.704Z,56.30
2017-08-24T10:54:39.737Z,56.40
2017-08-24T10:57:05.707Z,56.30
2017-08-24T10:59:33.071Z,56.10
2017-08-24T11:01:59.032Z,56.70
2017-08-24T11:04:24.970Z,55.60
2017-08-24T11:06:51.013Z,53.50
2017-08-24T11:09:18.032Z,53.20
2017-08-24T11:11:43.958Z,52.40
2017-08-24T11:14:10.522Z,53.60
2017-08-24T11:16:36.946Z,53.80
2017-08-24T11:19:03.681Z,54.90
2017-08-24T11:21:29.655Z,55.90
2017-08-24T11:23:56.156Z,56.20
2017-08-24T11:26:23.321Z,57.10
2017-08-24T11:28:51.902Z,57.20
2017-08-24T11:31:18.530Z,57.90
2017-08-24T11:33:44.554Z,58.10
2017-08-24T11:36:11.148Z,58.40
2017-08-24T11:38:37.100Z,58.50
2017-08-24T11:41:03.154Z,58.70
2017-08-24T11:43:29.616Z,58.60
2017-08-24T11:45:55.888Z,58.40
2017-08-24T11:48:22.163Z,58.50
2017-08-24T11:50:48.953Z,58.90
2017-08-24T11:53:18.269Z,58.20
2017-08-24T11:58:16.673Z,58.30
2017-08-24T12:00:43.631Z,58.10
2017-08-24T12:05:47.927Z,57.50
2017-08-24T12:08:15.339Z,57.20
2017-08-24T12:10:45.668Z,56.60
2017-08-24T12:13:13.683Z,56.70
2017-08-24T12:15:39.730Z,55.70
2017-08-24T12:18:05.740Z,56.00
2017-08-24T12:20:33.532Z,56.10
2017-08-24T12:22:59.748Z,56.40
2017-08-24T12:25:27.084Z,55.90
2017-08-24T12:27:55.461Z,55.00
2017-08-24T12:30:24.400Z,55.20
2017-08-24T12:32:51.287Z,55.90
2017-08-24T12:35:17.431Z,55.30
2017-08-24T12:37:43.514Z,54.90
2017-08-24T12:40:10.262Z,54.90
2017-08-24T12:42:37.157Z,55.10
2017-08-24T12:45:04.240Z,55.20
2017-08-24T12:47:30.347Z,55.30
2017-08-24T12:49:57.198Z,55.50
2017-08-24T12:52:23.677Z,55.60
2017-08-24T12:54:51.659Z,54.90
2017-08-24T12:57:19.103Z,54.00
2017-08-24T12:59:49.815Z,53.10
2017-08-24T13:02:16.901Z,52.50
2017-08-24T13:04:43.808Z,52.20
2017-08-24T13:07:11.647Z,52.30
2017-08-24T13:09:37.656Z,51.90
2017-08-24T13:14:36.205Z,52.40
2017-08-24T13:17:02.399Z,52.20
2017-08-24T13:19:29.956Z,52.60
2017-08-24T13:21:56.105Z,51.50
2017-08-24T13:24:22.324Z,51.80
2017-08-24T13:26:48.438Z,50.80
2017-08-24T13:29:15.399Z,50.50
2017-08-24T13:31:43.959Z,50.50
2017-08-24T13:34:10.003Z,49.30
2017-08-24T13:36:36.083Z,48.30
2017-08-24T13:39:02.267Z,49.00
2017-08-24T13:41:28.396Z,49.10
2017-08-24T13:43:54.450Z,48.80
2017-08-24T13:46:20.513Z,48.80
2017-08-24T13:48:47.210Z,49.20
2017-08-24T13:51:13.160Z,49.30
2017-08-24T13:53:40.751Z,48.90
2017-08-24T13:56:06.972Z,48.30
2017-08-24T13:58:34.304Z,48.30
2017-08-24T14:01:01.306Z,49.00
2017-08-24T14:03:27.980Z,48.50
2017-08-24T14:05:54.847Z,48.10
2017-08-24T14:08:24.336Z,48.40
2017-08-24T14:10:50.485Z,48.00
2017-08-24T14:13:17.840Z,48.10
2017-08-24T14:15:44.612Z,46.60
2017-08-24T14:18:10.659Z,46.80
2017-08-24T14:20:36.693Z,48.20
2017-08-24T14:23:03.419Z,48.40
2017-08-24T14:25:29.485Z,47.90
2017-08-24T14:27:55.543Z,47.90
2017-08-24T14:30:26.612Z,47.10
2017-08-24T14:32:52.919Z,45.80
2017-08-24T14:35:22.742Z,44.60
2017-08-24T14:37:51.940Z,44.30
2017-08-24T14:40:19.677Z,44.00
2017-08-24T14:42:46.296Z,44.10
2017-08-24T14:45:13.103Z,42.60
2017-08-24T14:50:14.872Z,42.10
2017-08-24T14:52:40.895Z,42.10
2017-08-24T14:55:07.593Z,42.00
2017-08-24T14:57:33.724Z,42.30
2017-08-24T15:00:03.096Z,41.80
2017-08-24T15:02:30.218Z,41.00
2017-08-24T15:04:58.861Z,38.50
2017-08-24T15:07:27.578Z,38.50
2017-08-24T15:09:53.568Z,39.50
2017-08-24T15:12:19.853Z,40.20
2017-08-24T15:14:48.591Z,39.80
2017-08-24T15:17:15.573Z,39.40
2017-08-24T15:19:47.750Z,39.70
2017-08-24T15:22:15.539Z,40.00
2017-08-24T15:24:43.252Z,40.30
2017-08-24T15:27:09.271Z,40.10
2017-08-24T15:29:36.002Z,40.60
2017-08-24T15:32:02.715Z,41.30
2017-08-24T15:34:29.495Z,41.60
2017-08-24T15:36:56.728Z,41.50
2017-08-24T15:39:23.275Z,41.20
2017-08-24T15:41:49.274Z,40.60
2017-08-24T15:44:18.235Z,40.20
2017-08-24T15:46:45.753Z,40.20
2017-08-24T15:49:16.665Z,40.50
2017-08-24T15:51:44.251Z,40.60
2017-08-24T15:54:10.440Z,40.10
2017-08-24T15:56:36.482Z,40.40
2017-08-24T15:59:02.706Z,40.60
2017-08-24T16:01:28.764Z,41.10
2017-08-24T16:03:56.280Z,41.00
2017-08-24T16:06:27.081Z,41.50
2017-08-24T16:08:55.008Z,41.70
2017-08-24T16:11:22.480Z,42.10
2017-08-24T16:13:48.499Z,42.20
2017-08-24T16:16:15.773Z,42.50
2017-08-24T16:18:41.756Z,41.90
2017-08-24T16:21:07.730Z,42.40
2017-08-24T16:23:33.726Z,42.30
2017-08-24T16:25:59.755Z,42.90
2017-08-24T16:28:25.761Z,42.90
2017-08-24T16:30:51.759Z,43.20
2017-08-24T16:33:17.917Z,43.50
2017-08-24T16:35:43.927Z,43.80
2017-08-24T16:38:10.156Z,44.00
2017-08-24T16:40:39.475Z,43.70
2017-08-24T16:43:06.533Z,44.00
2017-08-24T16:45:32.702Z,44.10
2017-08-24T16:47:58.756Z,46.10
2017-08-24T16:50:27.852Z,47.00
2017-08-24T16:52:53.908Z,46.80
2017-08-24T16:55:20.130Z,45.80
2017-08-24T16:57:46.775Z,44.20
2017-08-24T17:00:13.575Z,44.50
2017-08-24T17:02:39.560Z,44.80
2017-08-24T17:05:05.519Z,44.90
2017-08-24T17:07:33.283Z,44.90
2017-08-24T17:10:00.052Z,45.20
2017-08-24T17:12:29.139Z,45.40
2017-08-24T17:14:55.264Z,45.40
2017-08-24T17:17:22.036Z,44.80
2017-08-24T17:19:48.051Z,45.20
2017-08-24T17:22:14.032Z,44.80
2017-08-24T17:24:39.973Z,45.40
2017-08-24T17:27:06.382Z,45.70
2017-08-24T17:29:32.418Z,46.10
2017-08-24T17:31:58.967Z,45.20
2017-08-24T17:36:57.833Z,46.70
2017-08-24T17:39:27.086Z,46.60
2017-08-24T17:41:53.001Z,46.90
2017-08-24T17:44:18.929Z,46.90
2017-08-24T17:46:46.510Z,47.20
2017-08-24T17:49:12.606Z,47.00
2017-08-24T17:51:39.398Z,46.90
2017-08-24T17:54:06.526Z,46.70
2017-08-24T17:56:33.076Z,46.80
2017-08-24T17:58:59.927Z,47.00
2017-08-24T18:01:27.195Z,47.20
2017-08-24T18:03:54.180Z,47.50
2017-08-24T18:06:20.192Z,47.60
2017-08-24T18:08:46.954Z,47.00
2017-08-24T18:11:14.700Z,47.30
2017-08-24T18:13:41.335Z,47.80
2017-08-24T18:16:07.293Z,47.30
2017-08-24T18:18:33.260Z,47.00
2017-08-24T18:20:59.241Z,47.10
2017-08-24T18:23:26.065Z,47.20
2017-08-24T18:25:52.033Z,47.60
2017-08-24T18:28:18.126Z,47.40
2017-08-24T18:30:44.159Z,47.60
2017-08-24T18:33:11.077Z,47.70
2017-08-24T18:35:37.276Z,48.00
2017-08-24T18:38:04.840Z,49.00
2017-08-24T18:40:31.630Z,48.40
2017-08-24T18:42:57.648Z,50.60
2017-08-24T18:45:26.360Z,51.60
2017-08-24T18:47:53.013Z,52.50
2017-08-24T18:50:23.096Z,53.00
2017-08-24T18:52:52.043Z,53.20
2017-08-24T18:57:54.115Z,53.60
2017-08-24T19:00:20.832Z,54.00
2017-08-24T19:02:48.652Z,54.40
2017-08-24T19:05:16.429Z,54.70
2017-08-24T19:07:43.055Z,54.80
2017-08-24T19:10:09.756Z,55.60
2017-08-24T19:12:38.790Z,55.80
2017-08-24T19:15:05.429Z,56.20
2017-08-24T19:17:33.295Z,56.50
2017-08-24T19:20:00.928Z,56.90
2017-08-24T19:22:29.098Z,56.90
2017-08-24T19:24:56.040Z,56.80
2017-08-24T19:27:22.029Z,56.60
2017-08-24T19:29:48.009Z,56.70
2017-08-24T19:32:16.656Z,56.60
2017-08-24T19:34:42.724Z,56.60
2017-08-24T19:37:08.770Z,56.60
2017-08-24T19:39:34.798Z,56.70
2017-08-24T19:42:00.817Z,57.10
2017-08-24T19:44:26.944Z,57.50
2017-08-24T19:46:55.706Z,58.00
2017-08-24T19:49:37.617Z,58.40
2017-08-24T19:52:03.628Z,58.60
2017-08-24T19:54:29.663Z,58.70
2017-08-24T19:56:56.598Z,58.70
2017-08-24T19:59:23.005Z,58.70
2017-08-24T20:01:49.316Z,58.90
2017-08-24T20:04:15.295Z,59.00
2017-08-24T20:06:43.525Z,59.00
2017-08-24T20:09:09.615Z,58.80
2017-08-24T20:11:35.600Z,59.00
2017-08-24T20:14:01.633Z,59.40
2017-08-24T20:16:27.695Z,59.10
2017-08-24T20:18:53.746Z,59.00
2017-08-24T20:21:20.296Z,58.80
2017-08-24T20:23:46.392Z,59.10
2017-08-24T20:26:13.288Z,59.20
2017-08-24T20:28:39.320Z,59.20
2017-08-24T20:31:05.416Z,59.30
2017-08-24T20:33:31.603Z,59.50
2017-08-24T20:35:57.593Z,59.50
2017-08-24T20:38:24.200Z,59.80
2017-08-24T20:40:50.437Z,59.90
2017-08-24T20:43:16.474Z,60.30
2017-08-24T20:45:42.507Z,60.70
2017-08-24T20:48:08.463Z,60.90
2017-08-24T20:50:34.478Z,61.30
2017-08-24T20:53:00.461Z,61.40
2017-08-24T20:55:26.451Z,62.10
2017-08-24T20:57:52.449Z,63.20
2017-08-24T21:00:18.832Z,63.80
2017-08-24T21:02:44.899Z,64.10
2017-08-24T21:05:10.807Z,64.10
2017-08-24T21:07:36.849Z,64.20
2017-08-24T21:10:02.898Z,64.70
2017-08-24T21:12:29.017Z,64.90
2017-08-24T21:14:56.020Z,65.60
2017-08-24T21:17:22.037Z,66.30
2017-08-24T21:19:47.986Z,67.00
2017-08-24T21:22:13.987Z,67.10
2017-08-24T21:24:40.234Z,67.30
2017-08-24T21:27:07.184Z,67.70
2017-08-24T21:29:33.473Z,67.90
2017-08-24T21:31:59.447Z,68.40
2017-08-24T21:34:25.428Z,68.70
2017-08-24T21:36:51.437Z,69.30
2017-08-24T21:39:17.449Z,69.80
2017-08-24T21:41:43.448Z,70.50
2017-08-24T21:44:09.455Z,70.70
2017-08-24T21:46:35.497Z,71.00
2017-08-24T21:49:01.482Z,71.00
2017-08-24T21:51:28.313Z,70.80
2017-08-24T21:53:54.335Z,71.10
2017-08-24T21:56:20.354Z,71.60
2017-08-24T21:58:46.381Z,71.60
2017-08-24T22:01:12.413Z,71.70
2017-08-24T22:03:38.387Z,72.00
2017-08-24T22:06:04.442Z,72.10
2017-08-24T22:08:30.403Z,72.00
2017-08-24T22:10:56.359Z,72.20
2017-08-24T22:13:22.330Z,72.30
2017-08-24T22:15:48.302Z,72.90
2017-08-24T22:18:14.349Z,74.00
2017-08-24T22:20:40.331Z,73.80
2017-08-24T22:23:06.308Z,74.20
2017-08-24T22:25:32.279Z,74.60
2017-08-24T22:27:59.045Z,74.80
2017-08-24T22:30:25.049Z,75.20
2017-08-24T22:32:51.793Z,76.20
2017-08-24T22:35:17.877Z,76.10
2017-08-24T22:37:43.827Z,76.80
2017-08-24T22:40:09.860Z,77.20
2017-08-24T22:42:35.822Z,77.30
2017-08-24T22:45:01.819Z,77.00
2017-08-24T22:47:27.754Z,76.30
2017-08-24T22:49:53.866Z,76.10
2017-08-24T22:52:19.885Z,76.50
2017-08-24T22:54:52.054Z,76.30
2017-08-24T22:57:24.063Z,76.80
2017-08-24T22:59:56.235Z,77.20
2017-08-24T23:02:28.248Z,77.40
2017-08-24T23:04:54.225Z,77.30
2017-08-24T23:07:20.180Z,76.90
2017-08-24T23:09:46.173Z,77.40
2017-08-24T23:12:12.152Z,77.40
2017-08-24T23:14:38.142Z,77.80
2017-08-24T23:17:04.179Z,77.50
2017-08-24T23:19:30.386Z,77.80
2017-08-24T23:21:56.491Z,78.10
2017-08-24T23:24:22.456Z,78.30
2017-08-24T23:26:48.423Z,78.30
2017-08-24T23:29:14.407Z,78.10
2017-08-24T23:31:40.396Z,78.20
2017-08-24T23:34:06.322Z,78.20
2017-08-24T23:36:32.257Z,78.20
2017-08-24T23:38:58.188Z,77.90
2017-08-24T23:41:24.264Z,77.90
2017-08-24T23:43:50.275Z,78.20
2017-08-24T23:46:16.246Z,79.30
2017-08-24T23:48:42.214Z,78.80
2017-08-24T23:51:08.189Z,78.50
2017-08-24T23:53:34.249Z,78.70
2017-08-24T23:56:00.187Z,78.50
2017-08-24T23:58:26.198Z,78.30
